sensor_id;sensor_type;location;lat;lon;timestamp;P1;durP1;ratioP1;P2;durP2;ratioP2
46721;SDS011;32455;43.430;23.136;2023-06-10T00:02:20;5.25;;;3.72;;
46721;SDS011;32455;43.430;23.136;2023-06-10T00:05:05;4.13;;;3.72;;
46721;SDS011;32455;43.430;23.136;2023-06-10T00:07:52;4.03;;;3.10;;
46721;SDS011;32455;43.430;23.136;2023-06-10T00:10:40;7.10;;;3.70;;
46721;SDS011;32455;43.430;23.136;2023-06-10T00:13:26;4.05;;;3.17;;
46721;SDS011;32455;43.430;23.136;2023-06-10T00:16:11;4.43;;;3.33;;
46721;SDS011;32455;43.430;23.136;2023-06-10T00:18:58;3.42;;;3.13;;
46721;SDS011;32455;43.430;23.136;2023-06-10T00:21:48;5.43;;;3.20;;
46721;SDS011;32455;43.430;23.136;2023-06-10T00:24:35;6.20;;;3.05;;
46721;SDS011;32455;43.430;23.136;2023-06-10T00:27:21;6.78;;;3.55;;
46721;SDS011;32455;43.430;23.136;2023-06-10T00:30:07;8.25;;;4.20;;
46721;SDS011;32455;43.430;23.136;2023-06-10T00:32:53;5.30;;;3.75;;
46721;SDS011;32455;43.430;23.136;2023-06-10T00:35:38;4.18;;;3.35;;
46721;SDS011;32455;43.430;23.136;2023-06-10T00:38:23;6.95;;;3.30;;
46721;SDS011;32455;43.430;23.136;2023-06-10T00:41:09;4.35;;;3.30;;
46721;SDS011;32455;43.430;23.136;2023-06-10T00:43:54;4.03;;;3.40;;
46721;SDS011;32455;43.430;23.136;2023-06-10T00:46:39;4.85;;;3.50;;
46721;SDS011;32455;43.430;23.136;2023-06-10T00:49:24;5.57;;;3.53;;
46721;SDS011;32455;43.430;23.136;2023-06-10T00:52:10;3.60;;;2.95;;
46721;SDS011;32455;43.430;23.136;2023-06-10T00:54:56;4.60;;;3.20;;
46721;SDS011;32455;43.430;23.136;2023-06-10T00:57:44;3.30;;;3.00;;
46721;SDS011;32455;43.430;23.136;2023-06-10T01:00:30;4.03;;;3.08;;
46721;SDS011;32455;43.430;23.136;2023-06-10T01:03:15;7.45;;;3.17;;
46721;SDS011;32455;43.430;23.136;2023-06-10T01:06:06;6.40;;;3.28;;
46721;SDS011;32455;43.430;23.136;2023-06-10T01:09:18;4.87;;;3.37;;
46721;SDS011;32455;43.430;23.136;2023-06-10T01:12:31;6.20;;;3.50;;
46721;SDS011;32455;43.430;23.136;2023-06-10T01:15:17;4.72;;;3.08;;
46721;SDS011;32455;43.430;23.136;2023-06-10T01:18:03;6.13;;;3.67;;
46721;SDS011;32455;43.430;23.136;2023-06-10T01:20:53;5.72;;;3.63;;
46721;SDS011;32455;43.430;23.136;2023-06-10T01:23:37;6.03;;;3.88;;
46721;SDS011;32455;43.430;23.136;2023-06-10T01:26:24;4.28;;;3.55;;
46721;SDS011;32455;43.430;23.136;2023-06-10T01:29:21;5.15;;;4.07;;
46721;SDS011;32455;43.430;23.136;2023-06-10T01:32:24;7.47;;;4.97;;
46721;SDS011;32455;43.430;23.136;2023-06-10T01:35:17;5.20;;;4.35;;
46721;SDS011;32455;43.430;23.136;2023-06-10T01:38:06;4.70;;;4.15;;
46721;SDS011;32455;43.430;23.136;2023-06-10T01:40:52;5.18;;;4.38;;
46721;SDS011;32455;43.430;23.136;2023-06-10T01:43:40;5.28;;;4.70;;
46721;SDS011;32455;43.430;23.136;2023-06-10T01:46:28;4.97;;;4.50;;
46721;SDS011;32455;43.430;23.136;2023-06-10T01:49:13;10.45;;;4.35;;
46721;SDS011;32455;43.430;23.136;2023-06-10T01:51:57;8.90;;;4.80;;
46721;SDS011;32455;43.430;23.136;2023-06-10T01:54:43;5.05;;;4.55;;
46721;SDS011;32455;43.430;23.136;2023-06-10T01:57:28;6.50;;;5.28;;
46721;SDS011;32455;43.430;23.136;2023-06-10T02:00:14;6.63;;;4.43;;
46721;SDS011;32455;43.430;23.136;2023-06-10T02:03:00;8.63;;;4.60;;
46721;SDS011;32455;43.430;23.136;2023-06-10T02:05:45;5.78;;;4.63;;
46721;SDS011;32455;43.430;23.136;2023-06-10T02:08:31;6.97;;;4.60;;
46721;SDS011;32455;43.430;23.136;2023-06-10T02:11:16;6.65;;;4.70;;
46721;SDS011;32455;43.430;23.136;2023-06-10T02:14:01;5.68;;;4.43;;
46721;SDS011;32455;43.430;23.136;2023-06-10T02:16:46;8.00;;;4.90;;
46721;SDS011;32455;43.430;23.136;2023-06-10T02:19:32;5.18;;;4.68;;
46721;SDS011;32455;43.430;23.136;2023-06-10T02:22:21;5.25;;;4.55;;
46721;SDS011;32455;43.430;23.136;2023-06-10T02:25:08;5.85;;;4.70;;
46721;SDS011;32455;43.430;23.136;2023-06-10T02:27:53;5.22;;;4.72;;
46721;SDS011;32455;43.430;23.136;2023-06-10T02:30:39;5.88;;;4.30;;
46721;SDS011;32455;43.430;23.136;2023-06-10T02:33:26;4.88;;;4.30;;
46721;SDS011;32455;43.430;23.136;2023-06-10T02:36:12;6.43;;;5.10;;
46721;SDS011;32455;43.430;23.136;2023-06-10T02:38:58;10.02;;;4.47;;
46721;SDS011;32455;43.430;23.136;2023-06-10T02:41:43;4.55;;;4.15;;
46721;SDS011;32455;43.430;23.136;2023-06-10T02:44:29;10.05;;;4.70;;
46721;SDS011;32455;43.430;23.136;2023-06-10T02:47:14;4.60;;;4.20;;
46721;SDS011;32455;43.430;23.136;2023-06-10T02:49:59;6.97;;;4.55;;
46721;SDS011;32455;43.430;23.136;2023-06-10T02:52:45;6.95;;;4.90;;
46721;SDS011;32455;43.430;23.136;2023-06-10T02:55:30;7.22;;;4.47;;
46721;SDS011;32455;43.430;23.136;2023-06-10T02:58:17;5.75;;;4.50;;
46721;SDS011;32455;43.430;23.136;2023-06-10T03:01:02;5.38;;;4.55;;
46721;SDS011;32455;43.430;23.136;2023-06-10T03:03:48;5.53;;;5.00;;
46721;SDS011;32455;43.430;23.136;2023-06-10T03:06:35;5.57;;;4.63;;
46721;SDS011;32455;43.430;23.136;2023-06-10T03:09:20;5.18;;;4.50;;
46721;SDS011;32455;43.430;23.136;2023-06-10T03:12:06;6.90;;;4.50;;
46721;SDS011;32455;43.430;23.136;2023-06-10T03:14:52;6.07;;;4.28;;
46721;SDS011;32455;43.430;23.136;2023-06-10T03:17:37;8.55;;;4.95;;
46721;SDS011;32455;43.430;23.136;2023-06-10T03:20:22;8.13;;;4.95;;
46721;SDS011;32455;43.430;23.136;2023-06-10T03:23:08;5.88;;;4.65;;
46721;SDS011;32455;43.430;23.136;2023-06-10T03:25:54;6.65;;;5.05;;
46721;SDS011;32455;43.430;23.136;2023-06-10T03:28:39;6.05;;;4.55;;
46721;SDS011;32455;43.430;23.136;2023-06-10T03:31:24;8.05;;;5.22;;
46721;SDS011;32455;43.430;23.136;2023-06-10T03:34:09;6.35;;;5.07;;
46721;SDS011;32455;43.430;23.136;2023-06-10T03:36:54;5.47;;;4.97;;
46721;SDS011;32455;43.430;23.136;2023-06-10T03:39:39;6.88;;;4.68;;
46721;SDS011;32455;43.430;23.136;2023-06-10T03:42:24;5.65;;;4.80;;
46721;SDS011;32455;43.430;23.136;2023-06-10T03:45:10;10.60;;;4.90;;
46721;SDS011;32455;43.430;23.136;2023-06-10T03:47:56;6.18;;;4.80;;
46721;SDS011;32455;43.430;23.136;2023-06-10T03:50:42;6.05;;;4.78;;
46721;SDS011;32455;43.430;23.136;2023-06-10T03:53:28;4.75;;;4.35;;
46721;SDS011;32455;43.430;23.136;2023-06-10T03:56:13;6.57;;;4.90;;
46721;SDS011;32455;43.430;23.136;2023-06-10T03:58:59;5.55;;;4.88;;
46721;SDS011;32455;43.430;23.136;2023-06-10T04:01:44;5.22;;;4.65;;
46721;SDS011;32455;43.430;23.136;2023-06-10T04:04:30;6.53;;;4.35;;
46721;SDS011;32455;43.430;23.136;2023-06-10T04:07:15;6.70;;;4.90;;
46721;SDS011;32455;43.430;23.136;2023-06-10T04:10:00;7.15;;;5.18;;
46721;SDS011;32455;43.430;23.136;2023-06-10T04:12:45;5.93;;;5.28;;
46721;SDS011;32455;43.430;23.136;2023-06-10T04:15:30;5.28;;;4.78;;
46721;SDS011;32455;43.430;23.136;2023-06-10T04:18:18;7.22;;;5.32;;
46721;SDS011;32455;43.430;23.136;2023-06-10T04:21:03;6.53;;;4.55;;
46721;SDS011;32455;43.430;23.136;2023-06-10T04:23:48;8.73;;;5.07;;
46721;SDS011;32455;43.430;23.136;2023-06-10T04:26:37;5.43;;;4.90;;
46721;SDS011;32455;43.430;23.136;2023-06-10T04:29:23;7.05;;;5.40;;
46721;SDS011;32455;43.430;23.136;2023-06-10T04:32:08;7.25;;;4.78;;
46721;SDS011;32455;43.430;23.136;2023-06-10T04:34:53;8.02;;;4.28;;
46721;SDS011;32455;43.430;23.136;2023-06-10T04:37:39;5.55;;;4.78;;
46721;SDS011;32455;43.430;23.136;2023-06-10T04:40:26;7.05;;;4.57;;
46721;SDS011;32455;43.430;23.136;2023-06-10T04:43:12;7.25;;;5.05;;
46721;SDS011;32455;43.430;23.136;2023-06-10T04:45:57;5.95;;;5.35;;
46721;SDS011;32455;43.430;23.136;2023-06-10T04:48:43;6.10;;;4.97;;
46721;SDS011;32455;43.430;23.136;2023-06-10T04:51:31;5.90;;;4.47;;
46721;SDS011;32455;43.430;23.136;2023-06-10T04:54:17;5.50;;;4.93;;
46721;SDS011;32455;43.430;23.136;2023-06-10T04:57:02;9.50;;;4.38;;
46721;SDS011;32455;43.430;23.136;2023-06-10T04:59:48;5.25;;;4.75;;
46721;SDS011;32455;43.430;23.136;2023-06-10T05:02:33;7.22;;;4.63;;
46721;SDS011;32455;43.430;23.136;2023-06-10T05:05:18;5.65;;;5.15;;
46721;SDS011;32455;43.430;23.136;2023-06-10T05:08:04;5.82;;;5.15;;
46721;SDS011;32455;43.430;23.136;2023-06-10T05:10:49;7.57;;;5.43;;
46721;SDS011;32455;43.430;23.136;2023-06-10T05:13:34;5.22;;;4.60;;
46721;SDS011;32455;43.430;23.136;2023-06-10T05:16:19;4.72;;;4.30;;
46721;SDS011;32455;43.430;23.136;2023-06-10T05:19:04;6.57;;;4.07;;
46721;SDS011;32455;43.430;23.136;2023-06-10T05:21:50;4.95;;;4.15;;
46721;SDS011;32455;43.430;23.136;2023-06-10T05:24:35;6.18;;;4.05;;
46721;SDS011;32455;43.430;23.136;2023-06-10T05:27:21;5.88;;;3.75;;
46721;SDS011;32455;43.430;23.136;2023-06-10T05:30:06;7.18;;;4.05;;
46721;SDS011;32455;43.430;23.136;2023-06-10T05:32:53;6.43;;;3.75;;
46721;SDS011;32455;43.430;23.136;2023-06-10T05:35:38;5.70;;;3.65;;
46721;SDS011;32455;43.430;23.136;2023-06-10T05:38:24;3.78;;;3.38;;
46721;SDS011;32455;43.430;23.136;2023-06-10T05:41:09;3.88;;;3.42;;
46721;SDS011;32455;43.430;23.136;2023-06-10T05:43:55;4.55;;;3.45;;
46721;SDS011;32455;43.430;23.136;2023-06-10T05:46:41;3.90;;;3.47;;
46721;SDS011;32455;43.430;23.136;2023-06-10T05:49:26;5.65;;;3.60;;
46721;SDS011;32455;43.430;23.136;2023-06-10T05:52:12;5.80;;;3.30;;
46721;SDS011;32455;43.430;23.136;2023-06-10T05:54:57;4.75;;;3.00;;
46721;SDS011;32455;43.430;23.136;2023-06-10T05:57:44;5.13;;;3.17;;
46721;SDS011;32455;43.430;23.136;2023-06-10T06:00:29;4.80;;;3.38;;
46721;SDS011;32455;43.430;23.136;2023-06-10T06:03:15;11.90;;;4.10;;
46721;SDS011;32455;43.430;23.136;2023-06-10T06:06:00;6.10;;;4.40;;
46721;SDS011;32455;43.430;23.136;2023-06-10T06:08:46;5.45;;;4.20;;
46721;SDS011;32455;43.430;23.136;2023-06-10T06:11:31;8.95;;;4.85;;
46721;SDS011;32455;43.430;23.136;2023-06-10T06:14:16;4.95;;;4.20;;
46721;SDS011;32455;43.430;23.136;2023-06-10T06:17:01;5.45;;;3.80;;
46721;SDS011;32455;43.430;23.136;2023-06-10T06:19:46;5.70;;;3.97;;
46721;SDS011;32455;43.430;23.136;2023-06-10T06:22:32;4.82;;;4.00;;
46721;SDS011;32455;43.430;23.136;2023-06-10T06:25:18;4.75;;;4.25;;
46721;SDS011;32455;43.430;23.136;2023-06-10T06:28:03;7.03;;;4.30;;
46721;SDS011;32455;43.430;23.136;2023-06-10T06:30:49;6.13;;;3.67;;
46721;SDS011;32455;43.430;23.136;2023-06-10T06:33:34;6.63;;;3.90;;
46721;SDS011;32455;43.430;23.136;2023-06-10T06:36:20;4.60;;;4.00;;
46721;SDS011;32455;43.430;23.136;2023-06-10T06:39:05;7.70;;;4.20;;
46721;SDS011;32455;43.430;23.136;2023-06-10T06:41:50;4.72;;;4.32;;
46721;SDS011;32455;43.430;23.136;2023-06-10T06:44:36;5.65;;;4.20;;
46721;SDS011;32455;43.430;23.136;2023-06-10T06:47:21;7.07;;;4.15;;
46721;SDS011;32455;43.430;23.136;2023-06-10T06:50:06;4.00;;;3.63;;
46721;SDS011;32455;43.430;23.136;2023-06-10T06:52:52;4.90;;;3.22;;
46721;SDS011;32455;43.430;23.136;2023-06-10T06:55:36;6.43;;;3.88;;
46721;SDS011;32455;43.430;23.136;2023-06-10T06:58:22;2.85;;;2.63;;
46721;SDS011;32455;43.430;23.136;2023-06-10T07:01:07;4.38;;;3.10;;
46721;SDS011;32455;43.430;23.136;2023-06-10T07:03:53;4.35;;;3.17;;
46721;SDS011;32455;43.430;23.136;2023-06-10T07:06:39;3.30;;;2.90;;
46721;SDS011;32455;43.430;23.136;2023-06-10T07:09:24;8.40;;;3.30;;
46721;SDS011;32455;43.430;23.136;2023-06-10T07:12:10;4.40;;;2.97;;
46721;SDS011;32455;43.430;23.136;2023-06-10T07:14:55;4.18;;;2.90;;
46721;SDS011;32455;43.430;23.136;2023-06-10T07:17:41;5.65;;;3.25;;
46721;SDS011;32455;43.430;23.136;2023-06-10T07:20:27;5.20;;;3.53;;
46721;SDS011;32455;43.430;23.136;2023-06-10T07:23:12;6.55;;;3.95;;
46721;SDS011;32455;43.430;23.136;2023-06-10T07:25:58;5.30;;;3.40;;
46721;SDS011;32455;43.430;23.136;2023-06-10T07:28:43;4.00;;;3.17;;
46721;SDS011;32455;43.430;23.136;2023-06-10T07:31:28;6.00;;;3.60;;
46721;SDS011;32455;43.430;23.136;2023-06-10T07:34:13;6.50;;;3.67;;
46721;SDS011;32455;43.430;23.136;2023-06-10T07:36:59;4.20;;;3.30;;
46721;SDS011;32455;43.430;23.136;2023-06-10T07:39:45;9.00;;;3.50;;
46721;SDS011;32455;43.430;23.136;2023-06-10T07:42:31;4.15;;;3.00;;
46721;SDS011;32455;43.430;23.136;2023-06-10T07:45:19;4.43;;;3.13;;
46721;SDS011;32455;43.430;23.136;2023-06-10T07:48:05;7.63;;;4.00;;
46721;SDS011;32455;43.430;23.136;2023-06-10T07:50:51;6.38;;;3.88;;
46721;SDS011;32455;43.430;23.136;2023-06-10T07:53:37;5.10;;;3.60;;
46721;SDS011;32455;43.430;23.136;2023-06-10T07:56:23;8.27;;;3.55;;
46721;SDS011;32455;43.430;23.136;2023-06-10T07:59:08;4.20;;;3.80;;
46721;SDS011;32455;43.430;23.136;2023-06-10T08:01:54;8.85;;;3.60;;
46721;SDS011;32455;43.430;23.136;2023-06-10T08:04:39;5.00;;;3.80;;
46721;SDS011;32455;43.430;23.136;2023-06-10T08:07:25;6.15;;;3.40;;
46721;SDS011;32455;43.430;23.136;2023-06-10T08:10:10;6.70;;;2.97;;
46721;SDS011;32455;43.430;23.136;2023-06-10T08:12:56;5.22;;;3.40;;
46721;SDS011;32455;43.430;23.136;2023-06-10T08:15:41;6.80;;;3.15;;
46721;SDS011;32455;43.430;23.136;2023-06-10T08:18:26;4.53;;;3.40;;
46721;SDS011;32455;43.430;23.136;2023-06-10T08:21:12;4.35;;;3.35;;
46721;SDS011;32455;43.430;23.136;2023-06-10T08:23:57;5.72;;;3.15;;
46721;SDS011;32455;43.430;23.136;2023-06-10T08:26:42;4.60;;;3.78;;
46721;SDS011;32455;43.430;23.136;2023-06-10T08:29:27;9.70;;;4.20;;
46721;SDS011;32455;43.430;23.136;2023-06-10T08:32:13;4.22;;;3.20;;
46721;SDS011;32455;43.430;23.136;2023-06-10T08:34:59;3.67;;;3.10;;
46721;SDS011;32455;43.430;23.136;2023-06-10T08:37:43;3.67;;;3.33;;
46721;SDS011;32455;43.430;23.136;2023-06-10T08:40:28;8.00;;;3.55;;
46721;SDS011;32455;43.430;23.136;2023-06-10T08:43:17;5.72;;;3.20;;
46721;SDS011;32455;43.430;23.136;2023-06-10T08:46:08;5.05;;;3.47;;
46721;SDS011;32455;43.430;23.136;2023-06-10T08:48:55;4.63;;;3.08;;
46721;SDS011;32455;43.430;23.136;2023-06-10T08:51:45;5.80;;;3.40;;
46721;SDS011;32455;43.430;23.136;2023-06-10T08:54:33;3.50;;;2.95;;
46721;SDS011;32455;43.430;23.136;2023-06-10T08:57:23;3.78;;;3.13;;
46721;SDS011;32455;43.430;23.136;2023-06-10T09:00:10;4.80;;;3.05;;
46721;SDS011;32455;43.430;23.136;2023-06-10T09:02:57;5.47;;;3.15;;
46721;SDS011;32455;43.430;23.136;2023-06-10T09:05:43;2.85;;;2.50;;
46721;SDS011;32455;43.430;23.136;2023-06-10T09:08:29;3.25;;;2.55;;
46721;SDS011;32455;43.430;23.136;2023-06-10T09:11:16;3.53;;;3.00;;
46721;SDS011;32455;43.430;23.136;2023-06-10T09:14:01;3.83;;;2.83;;
46721;SDS011;32455;43.430;23.136;2023-06-10T09:16:46;4.00;;;3.28;;
46721;SDS011;32455;43.430;23.136;2023-06-10T09:19:33;4.75;;;3.40;;
46721;SDS011;32455;43.430;23.136;2023-06-10T09:22:21;3.50;;;2.65;;
46721;SDS011;32455;43.430;23.136;2023-06-10T09:25:07;5.10;;;2.78;;
46721;SDS011;32455;43.430;23.136;2023-06-10T09:27:57;3.08;;;2.47;;
46721;SDS011;32455;43.430;23.136;2023-06-10T09:30:42;6.80;;;2.80;;
46721;SDS011;32455;43.430;23.136;2023-06-10T09:33:27;4.10;;;2.65;;
46721;SDS011;32455;43.430;23.136;2023-06-10T09:36:21;4.65;;;2.75;;
46721;SDS011;32455;43.430;23.136;2023-06-10T09:39:15;5.20;;;3.33;;
46721;SDS011;32455;43.430;23.136;2023-06-10T09:42:01;3.15;;;2.60;;
46721;SDS011;32455;43.430;23.136;2023-06-10T09:44:50;4.70;;;3.20;;
46721;SDS011;32455;43.430;23.136;2023-06-10T09:47:36;4.07;;;2.90;;
46721;SDS011;32455;43.430;23.136;2023-06-10T09:50:21;3.38;;;2.90;;
46721;SDS011;32455;43.430;23.136;2023-06-10T09:53:07;4.63;;;3.00;;
46721;SDS011;32455;43.430;23.136;2023-06-10T09:55:53;3.33;;;2.75;;
46721;SDS011;32455;43.430;23.136;2023-06-10T09:58:39;3.35;;;2.97;;
46721;SDS011;32455;43.430;23.136;2023-06-10T10:01:27;7.50;;;2.90;;
46721;SDS011;32455;43.430;23.136;2023-06-10T10:04:13;6.03;;;2.80;;
46721;SDS011;32455;43.430;23.136;2023-06-10T10:07:09;5.20;;;3.10;;
46721;SDS011;32455;43.430;23.136;2023-06-10T10:09:55;2.47;;;2.28;;
46721;SDS011;32455;43.430;23.136;2023-06-10T10:12:41;3.22;;;2.67;;
46721;SDS011;32455;43.430;23.136;2023-06-10T10:15:28;5.60;;;2.80;;
46721;SDS011;32455;43.430;23.136;2023-06-10T10:18:17;4.05;;;2.78;;
46721;SDS011;32455;43.430;23.136;2023-06-10T10:21:11;2.47;;;2.28;;
46721;SDS011;32455;43.430;23.136;2023-06-10T10:24:02;3.97;;;2.60;;
46721;SDS011;32455;43.430;23.136;2023-06-10T10:27:01;4.55;;;2.40;;
46721;SDS011;32455;43.430;23.136;2023-06-10T10:29:51;6.03;;;2.22;;
46721;SDS011;32455;43.430;23.136;2023-06-10T10:32:40;3.53;;;2.58;;
46721;SDS011;32455;43.430;23.136;2023-06-10T10:35:39;3.75;;;2.83;;
46721;SDS011;32455;43.430;23.136;2023-06-10T10:38:25;4.07;;;2.38;;
46721;SDS011;32455;43.430;23.136;2023-06-10T10:41:12;4.05;;;2.30;;
46721;SDS011;32455;43.430;23.136;2023-06-10T10:43:59;7.18;;;2.70;;
46721;SDS011;32455;43.430;23.136;2023-06-10T10:46:49;4.53;;;2.85;;
46721;SDS011;32455;43.430;23.136;2023-06-10T10:49:35;4.55;;;3.00;;
46721;SDS011;32455;43.430;23.136;2023-06-10T10:52:22;4.15;;;2.30;;
46721;SDS011;32455;43.430;23.136;2023-06-10T10:55:12;4.82;;;2.75;;
46721;SDS011;32455;43.430;23.136;2023-06-10T11:00:47;3.40;;;2.40;;
46721;SDS011;32455;43.430;23.136;2023-06-10T11:03:34;5.55;;;2.53;;
46721;SDS011;32455;43.430;23.136;2023-06-10T11:06:31;6.38;;;2.58;;
46721;SDS011;32455;43.430;23.136;2023-06-10T11:09:26;4.40;;;2.78;;
46721;SDS011;32455;43.430;23.136;2023-06-10T11:12:13;3.90;;;2.45;;
46721;SDS011;32455;43.430;23.136;2023-06-10T11:15:09;3.30;;;2.22;;
46721;SDS011;32455;43.430;23.136;2023-06-10T11:18:07;4.28;;;2.85;;
46721;SDS011;32455;43.430;23.136;2023-06-10T11:23:49;2.80;;;2.45;;
46721;SDS011;32455;43.430;23.136;2023-06-10T11:26:35;2.65;;;2.45;;
46721;SDS011;32455;43.430;23.136;2023-06-10T11:29:29;4.18;;;3.00;;
46721;SDS011;32455;43.430;23.136;2023-06-10T11:32:14;5.47;;;2.30;;
46721;SDS011;32455;43.430;23.136;2023-06-10T11:35:05;5.20;;;2.70;;
46721;SDS011;32455;43.430;23.136;2023-06-10T11:37:52;3.70;;;2.55;;
46721;SDS011;32455;43.430;23.136;2023-06-10T11:40:37;4.30;;;2.60;;
46721;SDS011;32455;43.430;23.136;2023-06-10T11:43:23;3.08;;;2.25;;
46721;SDS011;32455;43.430;23.136;2023-06-10T11:46:12;4.00;;;2.50;;
46721;SDS011;32455;43.430;23.136;2023-06-10T11:48:59;2.60;;;2.40;;
46721;SDS011;32455;43.430;23.136;2023-06-10T11:51:45;4.45;;;2.20;;
46721;SDS011;32455;43.430;23.136;2023-06-10T11:54:33;3.22;;;2.60;;
46721;SDS011;32455;43.430;23.136;2023-06-10T11:57:19;4.13;;;2.50;;
46721;SDS011;32455;43.430;23.136;2023-06-10T12:00:07;4.60;;;2.67;;
46721;SDS011;32455;43.430;23.136;2023-06-10T12:02:56;2.63;;;2.17;;
46721;SDS011;32455;43.430;23.136;2023-06-10T12:05:59;4.05;;;2.08;;
46721;SDS011;32455;43.430;23.136;2023-06-10T12:08:46;3.15;;;2.65;;
46721;SDS011;32455;43.430;23.136;2023-06-10T12:11:31;5.28;;;2.15;;
46721;SDS011;32455;43.430;23.136;2023-06-10T12:14:48;3.20;;;2.88;;
46721;SDS011;32455;43.430;23.136;2023-06-10T12:17:39;5.75;;;2.67;;
46721;SDS011;32455;43.430;23.136;2023-06-10T12:20:28;3.55;;;2.58;;
46721;SDS011;32455;43.430;23.136;2023-06-10T12:23:15;6.10;;;2.40;;
46721;SDS011;32455;43.430;23.136;2023-06-10T12:26:01;4.10;;;2.97;;
46721;SDS011;32455;43.430;23.136;2023-06-10T12:28:50;2.60;;;2.35;;
46721;SDS011;32455;43.430;23.136;2023-06-10T12:31:51;4.85;;;2.47;;
46721;SDS011;32455;43.430;23.136;2023-06-10T12:34:40;4.22;;;2.83;;
46721;SDS011;32455;43.430;23.136;2023-06-10T12:37:25;6.93;;;2.90;;
46721;SDS011;32455;43.430;23.136;2023-06-10T12:40:11;4.43;;;2.83;;
46721;SDS011;32455;43.430;23.136;2023-06-10T12:42:56;3.47;;;2.38;;
46721;SDS011;32455;43.430;23.136;2023-06-10T12:45:42;3.72;;;2.38;;
46721;SDS011;32455;43.430;23.136;2023-06-10T12:48:30;3.42;;;2.20;;
46721;SDS011;32455;43.430;23.136;2023-06-10T12:51:15;5.32;;;2.72;;
46721;SDS011;32455;43.430;23.136;2023-06-10T12:54:00;4.55;;;3.45;;
46721;SDS011;32455;43.430;23.136;2023-06-10T12:56:46;10.60;;;6.22;;
46721;SDS011;32455;43.430;23.136;2023-06-10T12:59:32;3.45;;;2.80;;
46721;SDS011;32455;43.430;23.136;2023-06-10T13:02:18;6.15;;;4.43;;
46721;SDS011;32455;43.430;23.136;2023-06-10T13:05:08;3.47;;;2.83;;
46721;SDS011;32455;43.430;23.136;2023-06-10T13:07:54;3.28;;;2.95;;
46721;SDS011;32455;43.430;23.136;2023-06-10T13:10:40;5.47;;;3.15;;
46721;SDS011;32455;43.430;23.136;2023-06-10T13:13:25;3.72;;;2.55;;
46721;SDS011;32455;43.430;23.136;2023-06-10T13:16:10;4.45;;;2.75;;
46721;SDS011;32455;43.430;23.136;2023-06-10T13:18:55;6.38;;;3.00;;
46721;SDS011;32455;43.430;23.136;2023-06-10T13:21:41;4.13;;;2.80;;
46721;SDS011;32455;43.430;23.136;2023-06-10T13:24:25;5.07;;;2.80;;
46721;SDS011;32455;43.430;23.136;2023-06-10T13:27:10;5.30;;;2.70;;
46721;SDS011;32455;43.430;23.136;2023-06-10T13:29:55;3.25;;;2.95;;
46721;SDS011;32455;43.430;23.136;2023-06-10T13:32:41;4.15;;;2.70;;
46721;SDS011;32455;43.430;23.136;2023-06-10T13:35:26;3.97;;;2.50;;
46721;SDS011;32455;43.430;23.136;2023-06-10T13:38:11;4.53;;;2.60;;
46721;SDS011;32455;43.430;23.136;2023-06-10T13:40:57;3.65;;;2.83;;
46721;SDS011;32455;43.430;23.136;2023-06-10T13:43:42;6.13;;;2.67;;
46721;SDS011;32455;43.430;23.136;2023-06-10T13:46:28;3.15;;;2.83;;
46721;SDS011;32455;43.430;23.136;2023-06-10T13:49:13;4.35;;;2.55;;
46721;SDS011;32455;43.430;23.136;2023-06-10T13:51:58;6.35;;;2.90;;
46721;SDS011;32455;43.430;23.136;2023-06-10T13:54:44;5.70;;;2.67;;
46721;SDS011;32455;43.430;23.136;2023-06-10T13:57:29;3.45;;;2.63;;
46721;SDS011;32455;43.430;23.136;2023-06-10T14:00:14;6.30;;;2.55;;
46721;SDS011;32455;43.430;23.136;2023-06-10T14:02:59;3.00;;;2.58;;
46721;SDS011;32455;43.430;23.136;2023-06-10T14:05:45;3.75;;;2.67;;
46721;SDS011;32455;43.430;23.136;2023-06-10T14:08:30;3.38;;;2.33;;
46721;SDS011;32455;43.430;23.136;2023-06-10T14:11:16;3.38;;;2.45;;
46721;SDS011;32455;43.430;23.136;2023-06-10T14:14:01;3.58;;;2.90;;
46721;SDS011;32455;43.430;23.136;2023-06-10T14:16:47;2.83;;;2.53;;
46721;SDS011;32455;43.430;23.136;2023-06-10T14:19:32;3.40;;;2.97;;
46721;SDS011;32455;43.430;23.136;2023-06-10T14:22:17;4.95;;;2.40;;
46721;SDS011;32455;43.430;23.136;2023-06-10T14:25:03;2.90;;;2.60;;
46721;SDS011;32455;43.430;23.136;2023-06-10T14:27:49;4.15;;;2.53;;
46721;SDS011;32455;43.430;23.136;2023-06-10T14:30:35;5.05;;;2.58;;
46721;SDS011;32455;43.430;23.136;2023-06-10T14:33:20;6.03;;;2.35;;
46721;SDS011;32455;43.430;23.136;2023-06-10T14:36:06;4.18;;;2.60;;
46721;SDS011;32455;43.430;23.136;2023-06-10T14:38:52;6.15;;;2.50;;
46721;SDS011;32455;43.430;23.136;2023-06-10T14:41:38;3.13;;;1.90;;
46721;SDS011;32455;43.430;23.136;2023-06-10T14:44:23;4.28;;;2.20;;
46721;SDS011;32455;43.430;23.136;2023-06-10T14:47:08;2.88;;;2.28;;
46721;SDS011;32455;43.430;23.136;2023-06-10T14:49:53;3.75;;;2.83;;
46721;SDS011;32455;43.430;23.136;2023-06-10T14:52:39;3.85;;;3.17;;
46721;SDS011;32455;43.430;23.136;2023-06-10T14:55:24;2.58;;;2.38;;
46721;SDS011;32455;43.430;23.136;2023-06-10T14:58:10;4.07;;;2.53;;
46721;SDS011;32455;43.430;23.136;2023-06-10T15:00:55;2.40;;;2.20;;
46721;SDS011;32455;43.430;23.136;2023-06-10T15:03:40;3.50;;;2.83;;
46721;SDS011;32455;43.430;23.136;2023-06-10T15:06:25;4.70;;;2.67;;
46721;SDS011;32455;43.430;23.136;2023-06-10T15:09:11;3.97;;;2.67;;
46721;SDS011;32455;43.430;23.136;2023-06-10T15:11:56;5.00;;;2.78;;
46721;SDS011;32455;43.430;23.136;2023-06-10T15:14:42;2.72;;;2.50;;
46721;SDS011;32455;43.430;23.136;2023-06-10T15:17:27;4.53;;;2.53;;
46721;SDS011;32455;43.430;23.136;2023-06-10T15:20:13;5.40;;;2.67;;
46721;SDS011;32455;43.430;23.136;2023-06-10T15:22:58;4.90;;;2.85;;
46721;SDS011;32455;43.430;23.136;2023-06-10T15:25:43;6.35;;;2.78;;
46721;SDS011;32455;43.430;23.136;2023-06-10T15:28:30;3.22;;;2.35;;
46721;SDS011;32455;43.430;23.136;2023-06-10T15:31:16;3.13;;;2.60;;
46721;SDS011;32455;43.430;23.136;2023-06-10T15:34:01;3.15;;;2.85;;
46721;SDS011;32455;43.430;23.136;2023-06-10T15:36:47;8.50;;;2.80;;
46721;SDS011;32455;43.430;23.136;2023-06-10T15:39:32;7.32;;;2.78;;
46721;SDS011;32455;43.430;23.136;2023-06-10T15:42:17;7.05;;;2.90;;
46721;SDS011;32455;43.430;23.136;2023-06-10T15:45:03;3.80;;;2.75;;
46721;SDS011;32455;43.430;23.136;2023-06-10T15:47:49;3.20;;;2.72;;
46721;SDS011;32455;43.430;23.136;2023-06-10T15:50:35;13.27;;;2.97;;
46721;SDS011;32455;43.430;23.136;2023-06-10T15:53:20;6.65;;;3.10;;
46721;SDS011;32455;43.430;23.136;2023-06-10T15:56:06;7.38;;;3.75;;
46721;SDS011;32455;43.430;23.136;2023-06-10T15:58:52;5.43;;;3.40;;
46721;SDS011;32455;43.430;23.136;2023-06-10T16:01:38;7.32;;;3.08;;
46721;SDS011;32455;43.430;23.136;2023-06-10T16:04:23;7.13;;;3.20;;
46721;SDS011;32455;43.430;23.136;2023-06-10T16:07:08;6.63;;;3.08;;
46721;SDS011;32455;43.430;23.136;2023-06-10T16:09:54;5.75;;;3.45;;
46721;SDS011;32455;43.430;23.136;2023-06-10T16:12:39;3.65;;;3.03;;
46721;SDS011;32455;43.430;23.136;2023-06-10T16:15:26;5.25;;;3.53;;
46721;SDS011;32455;43.430;23.136;2023-06-10T16:18:12;4.38;;;3.45;;
46721;SDS011;32455;43.430;23.136;2023-06-10T16:20:57;5.05;;;2.67;;
46721;SDS011;32455;43.430;23.136;2023-06-10T16:23:43;3.05;;;2.75;;
46721;SDS011;32455;43.430;23.136;2023-06-10T16:26:28;3.15;;;2.58;;
46721;SDS011;32455;43.430;23.136;2023-06-10T16:29:14;4.15;;;2.90;;
46721;SDS011;32455;43.430;23.136;2023-06-10T16:32:00;3.25;;;2.95;;
46721;SDS011;32455;43.430;23.136;2023-06-10T16:34:45;3.95;;;3.40;;